Lorraine L — WDB8580 — position and weather

sailwx.info

Track history (hours):
 
Tides and Currents Weather Stations Pressure Air Temp Water Temp Dewpoint Dewpoint Depression Visibility Wind Speed Wind Dir Waves Ship Positions

Lorraine L

Owner: Highland Towing LLC, Metairie, LA. More information available from US FCC via Universal Licensing System and Coast Guard Vessel Documentation Center.

Last reported at 2016-May-03 19:31 UTC. Time now 2016-May-03 20:05 UTC.
Position N 30°06' W 093°18'.

Length 19 m; draft 2.4 m.

Type: Towing. MMSI: 366961130.

Date/timePositionNaut miles runAvg speedWind from/ knotsBaromVisibWave heightAir tempDewpointWater temp
2016-May-03 19:31N 30°06' W 093°18'0 0.0
2016-May-03 18:28N 30°06' W 093°18'0 0.0
2016-May-03 17:31N 30°06' W 093°18'0 0.0
2016-May-03 16:31N 30°06' W 093°18'0 0.0
2016-May-03 15:31N 30°06' W 093°18'0 0.0
2016-May-03 14:31N 30°06' W 093°18'0 0.0
2016-May-03 13:31N 30°06' W 093°18'0 0.0
2016-May-03 12:31N 30°06' W 093°18'0 0.0
2016-May-03 11:31N 30°06' W 093°18'0 0.0
2016-May-03 10:31N 30°06' W 093°18'0 0.0
2016-May-03 09:31N 30°06' W 093°18'0 0.0
2016-May-03 08:31N 30°06' W 093°18'0 0.0
2016-May-03 07:31N 30°06' W 093°18'0 0.0
2016-May-03 06:31N 30°06' W 093°18'0 0.0
2016-May-03 05:31N 30°06' W 093°18'0 0.0
2016-May-03 04:31N 30°06' W 093°18'0 0.0
2016-May-03 03:31N 30°06' W 093°18'0 0.0
2016-May-03 02:31N 30°06' W 093°18'0 0.0
2016-May-03 01:31N 30°06' W 093°18'0 0.0
2016-May-03 00:31N 30°06' W 093°18'0 0.0
2016-May-02 23:31N 30°06' W 093°18'0 0.0
2016-May-02 22:31N 30°06' W 093°18'0 0.0
2016-May-02 21:31N 30°06' W 093°18'0 0.0
2016-May-02 20:31N 30°06' W 093°18'0 0.0
2016-May-02 19:31N 30°06' W 093°18'0 0.0
2016-May-02 18:33N 30°06' W 093°18'0 0.0
2016-May-02 17:31N 30°06' W 093°18'0 0.0
2016-May-02 16:31N 30°06' W 093°18'0 0.0
2016-May-02 15:31N 30°06' W 093°18'0 0.0
2016-May-02 14:31N 30°06' W 093°18'0 0.0
2016-May-02 13:31N 30°06' W 093°18'0 0.0
2016-May-02 12:31N 30°06' W 093°18'0 0.0
2016-May-02 11:31N 30°06' W 093°18'0 0.0
2016-May-02 10:32N 30°06' W 093°18'0 0.0
2016-May-02 09:31N 30°06' W 093°18'0 0.0
2016-May-02 08:31N 30°06' W 093°18'0 0.0
2016-May-02 07:31N 30°06' W 093°18'0 0.0
2016-May-02 06:31N 30°06' W 093°18'0 0.0
2016-May-02 05:31N 30°06' W 093°18'0 0.0
2016-May-02 04:31N 30°06' W 093°18'0 0.0
2016-May-02 03:31N 30°06' W 093°18'0 0.0
2016-May-02 02:31N 30°06' W 093°18'0 0.0
2016-May-02 01:31N 30°06' W 093°18'0 0.0
2016-May-02 00:31N 30°06' W 093°18'0 0.0
2016-May-01 23:31N 30°06' W 093°18'0 0.0
2016-May-01 22:31N 30°06' W 093°18'0 0.0
2016-May-01 21:31N 30°06' W 093°18'0 0.0
2016-May-01 20:31N 30°06' W 093°18'0 0.0
2016-May-01 19:31N 30°06' W 093°18'0 0.0
2016-May-01 18:32N 30°06' W 093°18'0 0.0
2016-May-01 17:32N 30°06' W 093°18'0 0.0
2016-May-01 16:33N 30°06' W 093°18'0 0.0
2016-May-01 15:33N 30°06' W 093°18'0 0.0
2016-May-01 14:33N 30°06' W 093°18'5 4.5
2016-May-01 13:33N 30°04' W 093°22'6 6.1
2016-May-01 12:33N 30°04' W 093°29'6 5.9
2016-May-01 11:33N 30°04' W 093°36'5 5.4
2016-May-01 10:33N 30°03' W 093°42'26 0.7
2016-Apr-29 18:06N 29°45' W 094°04'7 0.2
2016-Apr-27 17:10N 29°50' W 093°58'0 0.0
2016-Apr-27 16:27N 29°50' W 093°58'0 0.0
2016-Apr-27 15:21N 29°50' W 093°58'0 0.0
2016-Apr-27 14:30N 29°50' W 093°58'8 0.8
2016-Apr-27 04:17N 29°56' W 093°52'4 4.6
2016-Apr-27 03:30N 29°59' W 093°50'3 2.3
2016-Apr-27 02:17N 29°60' W 093°47'2 2.6
2016-Apr-27 01:29N 30°01' W 093°45'4 4.4
2016-Apr-27 00:33N 30°04' W 093°41'4 4.0
2016-Apr-26 23:33N 30°04' W 093°36'4 3.9
2016-Apr-26 22:33N 30°04' W 093°32'4 4.0
2016-Apr-26 21:33N 30°04' W 093°27'4 3.8
2016-Apr-26 20:33N 30°04' W 093°23'3 3.2
2016-Apr-26 19:34N 30°05' W 093°20'2 1.6
2016-Apr-26 18:32N 30°06' W 093°18'0 0.0
2016-Apr-26 17:33N 30°06' W 093°18'0 0.0
2016-Apr-26 16:32N 30°06' W 093°18'0 0.0
2016-Apr-26 15:31N 30°06' W 093°18'0 0.0
2016-Apr-26 14:31N 30°06' W 093°18'0 0.0
2016-Apr-26 13:33N 30°06' W 093°18'0 0.1
2016-Apr-26 12:33N 30°06' W 093°18'0 0.0
2016-Apr-26 11:33N 30°06' W 093°18'0 0.0
2016-Apr-26 10:33N 30°06' W 093°18'1 1.3
2016-Apr-26 09:33N 30°06' W 093°20'5 4.7
2016-Apr-26 08:33N 30°11' W 093°19'0 0.2
2016-Apr-26 07:33N 30°11' W 093°19'0 0.0
2016-Apr-26 06:33N 30°11' W 093°19'0 0.0
2016-Apr-26 05:33N 30°11' W 093°19'0 0.0
2016-Apr-26 04:30N 30°11' W 093°19'0 0.0
2016-Apr-26 03:33N 30°11' W 093°19'0 0.0
2016-Apr-26 02:33N 30°11' W 093°19'0 0.0
2016-Apr-26 01:34N 30°11' W 093°19'0 0.0
2016-Apr-26 00:33N 30°11' W 093°19'0 0.0
2016-Apr-25 23:33N 30°11' W 093°19'1 1.5
2016-Apr-25 22:33N 30°10' W 093°19'4 3.8
2016-Apr-25 21:33N 30°06' W 093°19'1 1.1
2016-Apr-25 20:31N 30°06' W 093°18'0 0.0
2016-Apr-25 19:31N 30°06' W 093°18'0 0.0
2016-Apr-25 18:32N 30°06' W 093°18'0 0.0
2016-Apr-25 17:33N 30°06' W 093°18'0 0.0
2016-Apr-25 16:32N 30°06' W 093°18'0 0.0
2016-Apr-25 15:29N 30°06' W 093°18'0 0.0
2016-Apr-25 14:32N 30°06' W 093°18'0 0.0
2016-Apr-25 13:32N 30°06' W 093°18'0 0.0
2016-Apr-25 12:32N 30°06' W 093°18'0 0.0
2016-Apr-25 11:32N 30°06' W 093°18'0 0.0
2016-Apr-25 10:32N 30°06' W 093°18'0 0.0
2016-Apr-25 09:32N 30°06' W 093°18'0 0.0
2016-Apr-25 08:32N 30°06' W 093°18'0 0.0
2016-Apr-25 07:32N 30°06' W 093°18'0 0.0
2016-Apr-25 06:32N 30°06' W 093°18'0 0.0
2016-Apr-25 05:32N 30°06' W 093°18'0 0.0
2016-Apr-25 04:32N 30°06' W 093°18'0 0.0
2016-Apr-25 03:32N 30°06' W 093°18'0 0.0
2016-Apr-25 02:32N 30°06' W 093°18'0 0.0
2016-Apr-25 01:32N 30°06' W 093°18'0 0.0
2016-Apr-25 00:32N 30°06' W 093°18'0 0.0
2016-Apr-24 23:32N 30°06' W 093°18'0 0.0
2016-Apr-24 22:32N 30°06' W 093°18'0 0.0
2016-Apr-24 21:32N 30°06' W 093°18'0 0.0
2016-Apr-24 20:33N 30°06' W 093°18'0 0.1
2016-Apr-24 19:33N 30°06' W 093°18'0 0.2
2016-Apr-24 18:32N 30°06' W 093°18'0 0.0
2016-Apr-24 17:32N 30°06' W 093°18'0 0.0
2016-Apr-24 16:32N 30°06' W 093°18'0 0.0
2016-Apr-24 15:32N 30°06' W 093°18'0 0.0
2016-Apr-24 14:32N 30°06' W 093°18'0 0.0
2016-Apr-24 13:32N 30°06' W 093°18'0 0.0
2016-Apr-24 12:32N 30°06' W 093°18'0 0.0
2016-Apr-24 11:32N 30°06' W 093°18'0 0.0
2016-Apr-24 10:32N 30°06' W 093°18'0 0.0
2016-Apr-24 09:32N 30°06' W 093°18'0 0.0
2016-Apr-24 08:32N 30°06' W 093°18'0 0.0
2016-Apr-24 07:32N 30°06' W 093°18'0 0.0
2016-Apr-24 06:32N 30°06' W 093°18'0 0.0
2016-Apr-24 05:32N 30°06' W 093°18'0 0.0
2016-Apr-24 04:32N 30°06' W 093°18'0 0.0
2016-Apr-24 03:32N 30°06' W 093°18'0 0.0
2016-Apr-24 02:32N 30°06' W 093°18'0 0.0
2016-Apr-24 01:32N 30°06' W 093°18'0 0.0
2016-Apr-24 00:32N 30°06' W 093°18'0 0.0
2016-Apr-23 23:32N 30°06' W 093°18'0 0.0
2016-Apr-23 22:32N 30°06' W 093°18'0 0.0
2016-Apr-23 21:32N 30°06' W 093°18'0 0.0
2016-Apr-23 20:32N 30°06' W 093°18'0 0.0
2016-Apr-23 19:32N 30°06' W 093°18'  
Track history (hours):
 
Tides and Currents Weather Stations Pressure Air Temp Water Temp Dewpoint Dewpoint Depression Visibility Wind Speed Wind Dir Waves Ship Positions

Lorraine L

Owner: Highland Towing LLC, Metairie, LA. More information available from US FCC via Universal Licensing System and Coast Guard Vessel Documentation Center.

Last reported at 2016-May-03 19:31 UTC. Time now 2016-May-03 20:05 UTC.
Position N 30°06' W 093°18'.

Length 19 m; draft 2.4 m.

Type: Towing. MMSI: 366961130.

Date/timePositionNaut miles runAvg speedWind from/ knotsBaromVisibWave heightAir tempDewpointWater temp
2016-May-03 19:31N 30°06' W 093°18'0 0.0
2016-May-03 18:28N 30°06' W 093°18'0 0.0
2016-May-03 17:31N 30°06' W 093°18'0 0.0
2016-May-03 16:31N 30°06' W 093°18'0 0.0
2016-May-03 15:31N 30°06' W 093°18'0 0.0
2016-May-03 14:31N 30°06' W 093°18'0 0.0
2016-May-03 13:31N 30°06' W 093°18'0 0.0
2016-May-03 12:31N 30°06' W 093°18'0 0.0
2016-May-03 11:31N 30°06' W 093°18'0 0.0
2016-May-03 10:31N 30°06' W 093°18'0 0.0
2016-May-03 09:31N 30°06' W 093°18'0 0.0
2016-May-03 08:31N 30°06' W 093°18'0 0.0
2016-May-03 07:31N 30°06' W 093°18'0 0.0
2016-May-03 06:31N 30°06' W 093°18'0 0.0
2016-May-03 05:31N 30°06' W 093°18'0 0.0
2016-May-03 04:31N 30°06' W 093°18'0 0.0
2016-May-03 03:31N 30°06' W 093°18'0 0.0
2016-May-03 02:31N 30°06' W 093°18'0 0.0
2016-May-03 01:31N 30°06' W 093°18'0 0.0
2016-May-03 00:31N 30°06' W 093°18'0 0.0
2016-May-02 23:31N 30°06' W 093°18'0 0.0
2016-May-02 22:31N 30°06' W 093°18'0 0.0
2016-May-02 21:31N 30°06' W 093°18'0 0.0
2016-May-02 20:31N 30°06' W 093°18'0 0.0
2016-May-02 19:31N 30°06' W 093°18'0 0.0
2016-May-02 18:33N 30°06' W 093°18'0 0.0
2016-May-02 17:31N 30°06' W 093°18'0 0.0
2016-May-02 16:31N 30°06' W 093°18'0 0.0
2016-May-02 15:31N 30°06' W 093°18'0 0.0
2016-May-02 14:31N 30°06' W 093°18'0 0.0
2016-May-02 13:31N 30°06' W 093°18'0 0.0
2016-May-02 12:31N 30°06' W 093°18'0 0.0
2016-May-02 11:31N 30°06' W 093°18'0 0.0
2016-May-02 10:32N 30°06' W 093°18'0 0.0
2016-May-02 09:31N 30°06' W 093°18'0 0.0
2016-May-02 08:31N 30°06' W 093°18'0 0.0
2016-May-02 07:31N 30°06' W 093°18'0 0.0
2016-May-02 06:31N 30°06' W 093°18'0 0.0
2016-May-02 05:31N 30°06' W 093°18'0 0.0
2016-May-02 04:31N 30°06' W 093°18'0 0.0
2016-May-02 03:31N 30°06' W 093°18'0 0.0
2016-May-02 02:31N 30°06' W 093°18'0 0.0
2016-May-02 01:31N 30°06' W 093°18'0 0.0
2016-May-02 00:31N 30°06' W 093°18'0 0.0
2016-May-01 23:31N 30°06' W 093°18'0 0.0
2016-May-01 22:31N 30°06' W 093°18'0 0.0
2016-May-01 21:31N 30°06' W 093°18'0 0.0
2016-May-01 20:31N 30°06' W 093°18'0 0.0
2016-May-01 19:31N 30°06' W 093°18'0 0.0
2016-May-01 18:32N 30°06' W 093°18'0 0.0
2016-May-01 17:32N 30°06' W 093°18'0 0.0
2016-May-01 16:33N 30°06' W 093°18'0 0.0
2016-May-01 15:33N 30°06' W 093°18'0 0.0
2016-May-01 14:33N 30°06' W 093°18'5 4.5
2016-May-01 13:33N 30°04' W 093°22'6 6.1
2016-May-01 12:33N 30°04' W 093°29'6 5.9
2016-May-01 11:33N 30°04' W 093°36'5 5.4
2016-May-01 10:33N 30°03' W 093°42'26 0.7
2016-Apr-29 18:06N 29°45' W 094°04'7 0.2
2016-Apr-27 17:10N 29°50' W 093°58'0 0.0
2016-Apr-27 16:27N 29°50' W 093°58'0 0.0
2016-Apr-27 15:21N 29°50' W 093°58'0 0.0
2016-Apr-27 14:30N 29°50' W 093°58'8 0.8
2016-Apr-27 04:17N 29°56' W 093°52'4 4.6
2016-Apr-27 03:30N 29°59' W 093°50'3 2.3
2016-Apr-27 02:17N 29°60' W 093°47'2 2.6
2016-Apr-27 01:29N 30°01' W 093°45'4 4.4
2016-Apr-27 00:33N 30°04' W 093°41'4 4.0
2016-Apr-26 23:33N 30°04' W 093°36'4 3.9
2016-Apr-26 22:33N 30°04' W 093°32'4 4.0
2016-Apr-26 21:33N 30°04' W 093°27'4 3.8
2016-Apr-26 20:33N 30°04' W 093°23'3 3.2
2016-Apr-26 19:34N 30°05' W 093°20'2 1.6
2016-Apr-26 18:32N 30°06' W 093°18'0 0.0
2016-Apr-26 17:33N 30°06' W 093°18'0 0.0
2016-Apr-26 16:32N 30°06' W 093°18'0 0.0
2016-Apr-26 15:31N 30°06' W 093°18'0 0.0
2016-Apr-26 14:31N 30°06' W 093°18'0 0.0
2016-Apr-26 13:33N 30°06' W 093°18'0 0.1
2016-Apr-26 12:33N 30°06' W 093°18'0 0.0
2016-Apr-26 11:33N 30°06' W 093°18'0 0.0
2016-Apr-26 10:33N 30°06' W 093°18'1 1.3
2016-Apr-26 09:33N 30°06' W 093°20'5 4.7
2016-Apr-26 08:33N 30°11' W 093°19'0 0.2
2016-Apr-26 07:33N 30°11' W 093°19'0 0.0
2016-Apr-26 06:33N 30°11' W 093°19'0 0.0
2016-Apr-26 05:33N 30°11' W 093°19'0 0.0
2016-Apr-26 04:30N 30°11' W 093°19'0 0.0
2016-Apr-26 03:33N 30°11' W 093°19'0 0.0
2016-Apr-26 02:33N 30°11' W 093°19'0 0.0
2016-Apr-26 01:34N 30°11' W 093°19'0 0.0
2016-Apr-26 00:33N 30°11' W 093°19'0 0.0
2016-Apr-25 23:33N 30°11' W 093°19'1 1.5
2016-Apr-25 22:33N 30°10' W 093°19'4 3.8
2016-Apr-25 21:33N 30°06' W 093°19'1 1.1
2016-Apr-25 20:31N 30°06' W 093°18'0 0.0
2016-Apr-25 19:31N 30°06' W 093°18'0 0.0
2016-Apr-25 18:32N 30°06' W 093°18'0 0.0
2016-Apr-25 17:33N 30°06' W 093°18'0 0.0
2016-Apr-25 16:32N 30°06' W 093°18'0 0.0
2016-Apr-25 15:29N 30°06' W 093°18'0 0.0
2016-Apr-25 14:32N 30°06' W 093°18'0 0.0
2016-Apr-25 13:32N 30°06' W 093°18'0 0.0
2016-Apr-25 12:32N 30°06' W 093°18'0 0.0
2016-Apr-25 11:32N 30°06' W 093°18'0 0.0
2016-Apr-25 10:32N 30°06' W 093°18'0 0.0
2016-Apr-25 09:32N 30°06' W 093°18'0 0.0
2016-Apr-25 08:32N 30°06' W 093°18'0 0.0
2016-Apr-25 07:32N 30°06' W 093°18'0 0.0
2016-Apr-25 06:32N 30°06' W 093°18'0 0.0
2016-Apr-25 05:32N 30°06' W 093°18'0 0.0
2016-Apr-25 04:32N 30°06' W 093°18'0 0.0
2016-Apr-25 03:32N 30°06' W 093°18'0 0.0
2016-Apr-25 02:32N 30°06' W 093°18'0 0.0
2016-Apr-25 01:32N 30°06' W 093°18'0 0.0
2016-Apr-25 00:32N 30°06' W 093°18'0 0.0
2016-Apr-24 23:32N 30°06' W 093°18'0 0.0
2016-Apr-24 22:32N 30°06' W 093°18'0 0.0
2016-Apr-24 21:32N 30°06' W 093°18'0 0.0
2016-Apr-24 20:33N 30°06' W 093°18'0 0.1
2016-Apr-24 19:33N 30°06' W 093°18'0 0.2
2016-Apr-24 18:32N 30°06' W 093°18'0 0.0
2016-Apr-24 17:32N 30°06' W 093°18'0 0.0
2016-Apr-24 16:32N 30°06' W 093°18'0 0.0
2016-Apr-24 15:32N 30°06' W 093°18'0 0.0
2016-Apr-24 14:32N 30°06' W 093°18'0 0.0
2016-Apr-24 13:32N 30°06' W 093°18'0 0.0
2016-Apr-24 12:32N 30°06' W 093°18'0 0.0
2016-Apr-24 11:32N 30°06' W 093°18'0 0.0
2016-Apr-24 10:32N 30°06' W 093°18'0 0.0
2016-Apr-24 09:32N 30°06' W 093°18'0 0.0
2016-Apr-24 08:32N 30°06' W 093°18'0 0.0
2016-Apr-24 07:32N 30°06' W 093°18'0 0.0
2016-Apr-24 06:32N 30°06' W 093°18'0 0.0
2016-Apr-24 05:32N 30°06' W 093°18'0 0.0
2016-Apr-24 04:32N 30°06' W 093°18'0 0.0
2016-Apr-24 03:32N 30°06' W 093°18'0 0.0
2016-Apr-24 02:32N 30°06' W 093°18'0 0.0
2016-Apr-24 01:32N 30°06' W 093°18'0 0.0
2016-Apr-24 00:32N 30°06' W 093°18'0 0.0
2016-Apr-23 23:32N 30°06' W 093°18'0 0.0
2016-Apr-23 22:32N 30°06' W 093°18'0 0.0
2016-Apr-23 21:32N 30°06' W 093°18'0 0.0
2016-Apr-23 20:32N 30°06' W 093°18'0 0.0
2016-Apr-23 19:32N 30°06' W 093°18'  

Dump ship's entire track history